Time;durP1;ratioP1;P1;durP2;ratioP2;P2;SDS_P1;SDS_P2;PMS_P1;PMS_P2;Temp;Humidity;BMP_temperature;BMP_pressure;BME280_temperature;BME280_humidity;BME280_pressure;Samples;Min_cycle;Max_cycle;Signal;HPM_P1;HPM_P2
2023/06/06 00:01:09;;;;;;;1.40;1.00;;;17.40;91.00;;;;;;4992085;28;20489;-77
2023/06/06 00:03:37;;;;;;;1.43;0.90;;;17.40;92.10;;;;;;4999117;28;20527;-78
2023/06/06 00:06:04;;;;;;;1.43;0.90;;;17.40;92.60;;;;;;4985456;28;20488;-76
2023/06/06 00:08:33;;;;;;;1.47;0.90;;;17.30;94.00;;;;;;5003445;28;20496;-77
2023/06/06 00:11:00;;;;;;;1.43;0.90;;;17.30;93.20;;;;;;4992127;28;20532;-77
2023/06/06 00:13:32;;;;;;;1.40;0.90;;;17.30;93.30;;;;;;5000697;28;20475;-77
2023/06/06 00:15:59;;;;;;;1.50;1.00;;;17.30;93.60;;;;;;4985960;28;20587;-77
2023/06/06 00:18:26;;;;;;;1.40;0.97;;;17.20;94.50;;;;;;4997973;28;20944;-77
2023/06/06 00:20:54;;;;;;;1.50;0.90;;;17.20;94.30;;;;;;4987942;28;20839;-77
2023/06/06 00:23:21;;;;;;;1.50;0.90;;;17.20;94.50;;;;;;4998437;28;20460;-77
2023/06/06 00:25:49;;;;;;;1.50;0.90;;;17.10;95.00;;;;;;4997504;28;20570;-78
2023/06/06 00:28:16;;;;;;;1.50;1.00;;;17.10;94.20;;;;;;5011691;28;20556;-77
2023/06/06 00:30:44;;;;;;;1.43;0.90;;;17.10;95.60;;;;;;5000077;28;20460;-77
2023/06/06 00:33:11;;;;;;;1.50;0.90;;;17.10;95.70;;;;;;4988338;28;20481;-77
2023/06/06 00:35:38;;;;;;;1.50;1.00;;;17.00;96.00;;;;;;4998053;28;20492;-77
2023/06/06 00:38:05;;;;;;;1.40;0.90;;;17.00;96.30;;;;;;4995364;28;20476;-76
2023/06/06 00:40:32;;;;;;;1.50;0.90;;;17.00;96.80;;;;;;4997662;28;20510;-76
2023/06/06 00:42:59;;;;;;;1.47;0.90;;;17.00;96.20;;;;;;4985726;28;20485;-77
2023/06/06 00:45:26;;;;;;;1.40;0.90;;;17.00;96.90;;;;;;4997393;28;20516;-77
2023/06/06 00:47:54;;;;;;;1.50;0.90;;;17.00;96.40;;;;;;4986192;28;20483;-76
2023/06/06 00:50:23;;;;;;;1.40;1.00;;;16.90;97.10;;;;;;4995373;28;20464;-77
2023/06/06 00:52:50;;;;;;;1.50;0.90;;;16.90;96.90;;;;;;4986205;28;20667;-77
2023/06/06 00:55:20;;;;;;;1.50;1.00;;;16.90;97.10;;;;;;4996457;28;20512;-77
2023/06/06 00:57:48;;;;;;;1.50;1.00;;;16.90;97.90;;;;;;4987151;28;20480;-77
2023/06/06 01:00:16;;;;;;;1.50;1.00;;;16.80;97.20;;;;;;4998944;28;20460;-77
2023/06/06 01:02:47;;;;;;;1.50;0.90;;;16.80;97.40;;;;;;4988405;28;20503;-77
2023/06/06 01:05:18;;;;;;;1.50;1.00;;;16.80;98.00;;;;;;4991612;28;20572;-77
2023/06/06 01:07:47;;;;;;;1.43;0.90;;;16.80;98.00;;;;;;4990016;28;20530;-77
2023/06/06 01:10:14;;;;;;;1.50;1.00;;;16.80;97.60;;;;;;4992366;28;20476;-76
2023/06/06 01:12:49;;;;;;;1.50;0.90;;;16.70;97.90;;;;;;4987313;28;20487;-77
2023/06/06 01:15:20;;;;;;;1.50;0.90;;;16.70;98.00;;;;;;4996377;28;20495;-77
2023/06/06 01:17:49;;;;;;;1.47;0.90;;;16.70;98.00;;;;;;4987799;28;20499;-77
2023/06/06 01:20:18;;;;;;;1.43;0.90;;;16.60;98.00;;;;;;4990146;28;20457;-77
2023/06/06 01:22:48;;;;;;;1.47;1.00;;;16.60;98.00;;;;;;4991200;28;20555;-77
2023/06/06 01:25:21;;;;;;;1.43;1.00;;;16.60;97.90;;;;;;4996424;28;20480;-77
2023/06/06 01:27:53;;;;;;;1.43;0.90;;;16.60;97.60;;;;;;4984058;28;20535;-77
2023/06/06 01:30:22;;;;;;;1.40;1.00;;;16.60;98.20;;;;;;5000035;28;20465;-77
2023/06/06 01:32:55;;;;;;;1.50;1.00;;;16.50;97.60;;;;;;4993111;28;20877;-77
2023/06/06 01:35:29;;;;;;;1.47;0.90;;;16.50;98.20;;;;;;4998824;28;20482;-77
2023/06/06 01:38:07;;;;;;;1.50;1.00;;;16.50;98.20;;;;;;4992483;28;21196;-76
2023/06/06 01:40:34;;;;;;;1.50;1.00;;;16.40;98.20;;;;;;5002699;28;20507;-77
2023/06/06 01:43:04;;;;;;;1.47;0.90;;;16.40;98.20;;;;;;4990441;28;20476;-77
2023/06/06 01:45:34;;;;;;;1.50;1.00;;;16.40;98.20;;;;;;5000344;28;20476;-77
2023/06/06 01:48:02;;;;;;;1.47;0.90;;;16.30;98.20;;;;;;4990892;28;20483;-77
2023/06/06 01:50:29;;;;;;;1.50;1.00;;;16.30;98.20;;;;;;5002896;28;20464;-77
2023/06/06 01:52:57;;;;;;;1.40;1.00;;;16.30;98.20;;;;;;4991767;28;21061;-77
2023/06/06 01:55:25;;;;;;;1.50;1.00;;;16.30;98.20;;;;;;5002021;28;21041;-78
2023/06/06 01:57:52;;;;;;;1.47;1.00;;;16.20;98.20;;;;;;4989437;28;20480;-77
2023/06/06 02:00:20;;;;;;;1.47;1.00;;;16.20;98.20;;;;;;5003574;28;20468;-78
2023/06/06 02:02:47;;;;;;;1.47;0.90;;;16.20;98.20;;;;;;4992025;28;20488;-78
2023/06/06 02:05:14;;;;;;;1.50;1.00;;;16.10;98.20;;;;;;5002996;28;20483;-78
2023/06/06 02:07:41;;;;;;;1.47;1.00;;;16.10;98.20;;;;;;4992996;28;20476;-78
2023/06/06 02:10:10;;;;;;;1.50;1.00;;;16.10;98.20;;;;;;5002402;28;20493;-78
2023/06/06 02:12:37;;;;;;;1.47;1.00;;;16.00;98.20;;;;;;4993236;28;20491;-78
2023/06/06 02:15:05;;;;;;;1.47;0.90;;;16.00;98.20;;;;;;5002433;28;20467;-78
2023/06/06 02:17:32;;;;;;;1.50;1.00;;;16.00;98.20;;;;;;4999292;28;20483;-78
2023/06/06 02:19:59;;;;;;;1.47;0.90;;;15.90;98.20;;;;;;5003197;28;20479;-79
2023/06/06 02:22:25;;;;;;;1.47;1.00;;;15.90;98.20;;;;;;4994336;28;20602;-78
2023/06/06 02:24:52;;;;;;;1.43;1.00;;;15.90;98.20;;;;;;5005668;28;20456;-78
2023/06/06 02:27:22;;;;;;;1.47;1.00;;;15.90;98.20;;;;;;4998203;28;20471;-78
2023/06/06 02:29:49;;;;;;;1.50;1.00;;;15.90;98.20;;;;;;5008359;28;20880;-79
2023/06/06 02:32:16;;;;;;;1.50;1.00;;;15.90;98.20;;;;;;4998525;28;20494;-79
2023/06/06 02:34:43;;;;;;;1.50;0.90;;;15.90;98.20;;;;;;5005168;28;20471;-79
2023/06/06 02:37:09;;;;;;;1.50;0.90;;;15.80;98.20;;;;;;4996689;28;20496;-78
2023/06/06 02:39:36;;;;;;;1.47;1.00;;;15.80;98.20;;;;;;5013321;28;20464;-78
2023/06/06 02:42:03;;;;;;;1.50;1.00;;;15.80;98.20;;;;;;4993854;28;20477;-78
2023/06/06 02:44:33;;;;;;;1.40;1.00;;;15.80;98.20;;;;;;5006044;28;20460;-80
2023/06/06 02:47:00;;;;;;;1.50;1.00;;;15.70;98.20;;;;;;4995410;28;20489;-78
2023/06/06 02:49:28;;;;;;;1.50;0.90;;;15.70;98.20;;;;;;5010776;28;20480;-78
2023/06/06 02:51:55;;;;;;;1.43;1.00;;;15.70;98.20;;;;;;4994766;28;21074;-78
2023/06/06 02:54:22;;;;;;;1.47;1.00;;;15.60;98.20;;;;;;5004394;28;20565;-78
2023/06/06 02:56:49;;;;;;;1.50;1.00;;;15.60;98.20;;;;;;4998043;28;20480;-78
2023/06/06 02:59:15;;;;;;;1.50;1.00;;;15.60;98.20;;;;;;5006070;28;20973;-78
2023/06/06 03:01:45;;;;;;;1.50;1.00;;;15.50;98.20;;;;;;4998491;28;20495;-78
2023/06/06 03:04:12;;;;;;;1.50;1.00;;;15.50;98.20;;;;;;5005467;28;20488;-78
2023/06/06 03:06:40;;;;;;;1.50;0.90;;;15.50;98.20;;;;;;4997199;28;21159;-79
2023/06/06 03:09:07;;;;;;;1.50;1.00;;;15.50;98.20;;;;;;5003537;28;20512;-78
2023/06/06 03:11:34;;;;;;;1.47;0.90;;;15.50;98.20;;;;;;4997793;28;20480;-79
2023/06/06 03:14:01;;;;;;;1.50;1.00;;;15.50;98.20;;;;;;5007426;28;20492;-78
2023/06/06 03:16:30;;;;;;;1.40;1.00;;;15.40;98.20;;;;;;5001288;28;20475;-78
2023/06/06 03:18:58;;;;;;;1.50;1.00;;;15.40;98.20;;;;;;5008460;28;20464;-78
2023/06/06 03:21:25;;;;;;;1.50;1.10;;;15.40;98.20;;;;;;4994303;28;20476;-78
2023/06/06 03:23:52;;;;;;;1.47;0.90;;;15.40;98.20;;;;;;5007546;28;20471;-79
2023/06/06 03:26:20;;;;;;;1.50;1.00;;;15.40;98.20;;;;;;4996952;28;20480;-79
2023/06/06 03:28:47;;;;;;;1.50;0.90;;;15.30;98.20;;;;;;5002623;28;20494;-78
2023/06/06 03:31:13;;;;;;;1.47;0.90;;;15.30;98.20;;;;;;4999411;28;21017;-78
2023/06/06 03:33:40;;;;;;;1.50;1.00;;;15.30;98.20;;;;;;5001683;28;20473;-78
2023/06/06 03:36:08;;;;;;;1.47;1.00;;;15.30;98.20;;;;;;4995900;28;20479;-78
2023/06/06 03:38:35;;;;;;;1.47;1.00;;;15.30;98.20;;;;;;5002426;28;20460;-78
2023/06/06 03:41:02;;;;;;;1.50;1.00;;;15.30;98.20;;;;;;4987192;28;20464;-78
2023/06/06 03:43:30;;;;;;;1.50;1.00;;;15.20;98.20;;;;;;5003521;28;20456;-79
2023/06/06 03:46:03;;;;;;;1.43;1.00;;;15.20;98.20;;;;;;4993932;28;20560;-80
2023/06/06 03:48:31;;;;;;;1.43;0.90;;;15.20;98.20;;;;;;4999800;28;20516;-79
2023/06/06 03:50:58;;;;;;;1.50;0.90;;;15.20;98.20;;;;;;4990725;28;20606;-78
2023/06/06 03:53:26;;;;;;;1.50;1.00;;;15.20;98.20;;;;;;5003611;28;20457;-78
2023/06/06 03:55:53;;;;;;;1.50;1.00;;;15.20;98.20;;;;;;4997151;28;20471;-78
2023/06/06 03:58:20;;;;;;;1.47;1.00;;;15.20;98.20;;;;;;5010904;28;20490;-79
2023/06/06 04:00:51;;;;;;;1.43;1.00;;;15.20;98.20;;;;;;5006025;28;20543;-79
2023/06/06 04:03:18;;;;;;;1.50;1.00;;;15.20;98.20;;;;;;5014317;28;20475;-78
2023/06/06 04:05:48;;;;;;;1.50;1.00;;;15.20;98.20;;;;;;5009379;28;20483;-79
2023/06/06 04:08:15;;;;;;;1.43;1.00;;;15.20;98.20;;;;;;4981292;28;20977;-79
2023/06/06 04:10:43;;;;;;;1.43;0.97;;;15.30;98.20;;;;;;5008375;28;20492;-79
2023/06/06 04:13:10;;;;;;;1.43;1.00;;;15.20;98.20;;;;;;5003269;28;20483;-80
2023/06/06 04:15:37;;;;;;;1.50;1.00;;;15.30;98.20;;;;;;5009408;28;20492;-79
2023/06/06 04:18:04;;;;;;;1.50;1.00;;;15.30;98.20;;;;;;4981238;28;20542;-78
2023/06/06 04:23:17;;;;;;;1.40;1.00;;;15.30;98.20;;;;;;4978341;28;20527;-78
2023/06/06 04:25:46;;;;;;;1.50;1.00;;;15.30;98.20;;;;;;5007404;28;20477;-79
2023/06/06 04:28:17;;;;;;;1.47;1.00;;;15.40;98.20;;;;;;4981052;28;20504;-79
2023/06/06 04:30:45;;;;;;;1.43;0.90;;;15.40;98.20;;;;;;5012003;28;20480;-78
2023/06/06 04:33:12;;;;;;;1.50;1.00;;;15.40;98.20;;;;;;4994162;28;20489;-79
2023/06/06 04:35:42;;;;;;;1.47;1.00;;;15.40;98.20;;;;;;5005251;28;20572;-80
2023/06/06 04:38:10;;;;;;;1.50;1.00;;;15.50;98.20;;;;;;4983570;28;20476;-79
2023/06/06 04:40:39;;;;;;;1.47;1.00;;;15.50;98.20;;;;;;5008825;28;21289;-80
2023/06/06 04:43:08;;;;;;;1.50;1.00;;;15.60;98.20;;;;;;4982526;28;20560;-81
2023/06/06 04:45:38;;;;;;;1.50;1.00;;;15.60;98.20;;;;;;5010521;28;20500;-81
2023/06/06 04:48:05;;;;;;;1.50;1.00;;;15.70;98.20;;;;;;4982257;28;20470;-80
2023/06/06 04:50:32;;;;;;;1.40;1.00;;;15.80;98.20;;;;;;5014851;28;21071;-81
2023/06/06 04:52:59;;;;;;;1.50;1.00;;;16.00;98.20;;;;;;4999562;28;20493;-82
2023/06/06 04:55:27;;;;;;;1.50;1.00;;;16.00;98.20;;;;;;5006737;28;20500;-77
2023/06/06 04:57:55;;;;;;;1.47;1.00;;;16.10;98.20;;;;;;4996080;28;21069;-78
2023/06/06 05:00:25;;;;;;;1.47;0.90;;;16.10;98.20;;;;;;5000288;28;20524;-79
2023/06/06 05:02:51;;;;;;;1.47;1.00;;;16.20;98.20;;;;;;4994327;28;20468;-78
2023/06/06 05:05:19;;;;;;;1.47;0.90;;;16.20;98.20;;;;;;5007946;28;20489;-78
2023/06/06 05:07:46;;;;;;;1.47;1.00;;;16.30;98.20;;;;;;4997348;28;20663;-78
2023/06/06 05:10:15;;;;;;;1.47;0.90;;;16.40;98.20;;;;;;5007606;28;20496;-78
2023/06/06 05:12:42;;;;;;;1.47;0.90;;;16.50;98.20;;;;;;5003769;28;20472;-78
2023/06/06 05:15:09;;;;;;;1.50;1.00;;;16.60;98.20;;;;;;5010037;28;20469;-78
2023/06/06 05:17:37;;;;;;;1.50;1.00;;;16.70;98.20;;;;;;4996214;28;20488;-79
2023/06/06 05:20:08;;;;;;;1.50;0.90;;;16.90;98.20;;;;;;5006796;28;20465;-80
2023/06/06 05:22:35;;;;;;;1.50;1.00;;;17.10;98.20;;;;;;5000957;28;20550;-79
2023/06/06 05:25:02;;;;;;;1.50;0.90;;;17.20;98.20;;;;;;5011455;28;20560;-79
2023/06/06 05:27:29;;;;;;;1.50;0.90;;;17.40;98.20;;;;;;5002949;28;20518;-80
2023/06/06 05:29:56;;;;;;;1.50;1.10;;;17.60;98.20;;;;;;5017858;28;20580;-79
2023/06/06 05:32:22;;;;;;;1.50;1.00;;;17.60;98.20;;;;;;4997978;28;20575;-79
2023/06/06 05:34:51;;;;;;;1.43;0.90;;;17.80;98.20;;;;;;5015850;28;20452;-78
2023/06/06 05:37:19;;;;;;;1.50;0.90;;;17.80;98.20;;;;;;5004171;28;20499;-80
2023/06/06 05:39:46;;;;;;;1.50;0.90;;;17.80;98.20;;;;;;5009429;28;20461;-79
2023/06/06 05:42:17;;;;;;;1.50;0.90;;;17.90;98.20;;;;;;5006554;28;20472;-80
2023/06/06 05:44:50;;;;;;;1.50;0.90;;;18.00;98.20;;;;;;5009495;28;20467;-79
2023/06/06 05:47:17;;;;;;;1.50;0.97;;;18.10;98.20;;;;;;4999729;28;20476;-80
2023/06/06 05:49:44;;;;;;;1.43;0.90;;;18.20;98.20;;;;;;5011620;28;20498;-79
2023/06/06 05:52:12;;;;;;;1.43;0.90;;;18.30;98.20;;;;;;5000581;28;20512;-80
2023/06/06 05:54:39;;;;;;;1.50;0.90;;;18.30;98.20;;;;;;5013465;28;20465;-79
2023/06/06 05:57:25;;;;;;;1.43;0.90;;;18.40;98.20;;;;;;4990045;28;20938;-79
2023/06/06 05:59:52;;;;;;;1.47;0.90;;;18.50;98.20;;;;;;5009636;28;20552;-79
2023/06/06 06:02:20;;;;;;;1.47;0.90;;;18.50;98.20;;;;;;5002973;28;20514;-78
2023/06/06 06:04:53;;;;;;;1.40;0.90;;;18.60;98.20;;;;;;5007952;28;20456;-79
2023/06/06 06:07:22;;;;;;;1.50;1.00;;;18.70;98.20;;;;;;4997950;28;21005;-78
2023/06/06 06:09:48;;;;;;;1.43;0.90;;;18.80;98.00;;;;;;4997659;28;21203;-79
2023/06/06 06:12:16;;;;;;;1.47;0.90;;;18.90;97.80;;;;;;4997832;28;20482;-78
2023/06/06 06:14:43;;;;;;;1.50;0.90;;;19.00;97.30;;;;;;5004382;28;20471;-79
2023/06/06 06:17:10;;;;;;;1.50;1.10;;;19.10;97.70;;;;;;4996552;28;20571;-79
2023/06/06 06:19:36;;;;;;;1.50;1.00;;;19.30;96.90;;;;;;5002766;28;20924;-77
2023/06/06 06:22:04;;;;;;;1.43;0.90;;;19.50;96.50;;;;;;4992078;28;20480;-77
2023/06/06 06:24:32;;;;;;;1.47;0.90;;;19.60;95.70;;;;;;4995552;28;20986;-77
2023/06/06 06:27:00;;;;;;;1.50;0.90;;;19.80;94.80;;;;;;4985675;28;21009;-77
2023/06/06 06:29:26;;;;;;;1.47;0.90;;;20.00;94.90;;;;;;4997222;28;20480;-76
2023/06/06 06:31:53;;;;;;;1.47;0.90;;;20.10;94.60;;;;;;4982000;28;20491;-77
2023/06/06 06:34:20;;;;;;;1.50;0.90;;;20.10;94.20;;;;;;4992949;28;20468;-77
2023/06/06 06:36:47;;;;;;;1.43;0.90;;;20.20;93.90;;;;;;4982444;28;21137;-77
2023/06/06 06:39:18;;;;;;;1.50;0.90;;;20.40;93.80;;;;;;4984890;28;20468;-76
2023/06/06 06:41:47;;;;;;;1.50;0.90;;;20.60;93.10;;;;;;4980664;28;20531;-77
2023/06/06 06:44:14;;;;;;;1.47;0.90;;;20.80;92.90;;;;;;4990996;28;20494;-76
2023/06/06 06:46:41;;;;;;;1.47;0.90;;;20.90;91.90;;;;;;4977201;28;20500;-76
2023/06/06 06:49:20;;;;;;;1.50;0.90;;;21.10;92.00;;;;;;4997093;28;20453;-79
2023/06/06 06:51:48;;;;;;;1.50;0.90;;;21.20;91.40;;;;;;4991270;28;20476;-77
2023/06/06 06:54:15;;;;;;;1.43;0.90;;;21.30;90.90;;;;;;4999309;28;20468;-79
2023/06/06 06:56:42;;;;;;;1.50;0.90;;;21.50;90.70;;;;;;4983912;28;21010;-77
2023/06/06 06:59:13;;;;;;;1.50;0.90;;;21.60;90.50;;;;;;4989388;28;21087;-77
2023/06/06 07:01:49;;;;;;;1.50;0.90;;;21.80;90.50;;;;;;4988695;28;20482;-77
2023/06/06 07:04:16;;;;;;;1.47;0.90;;;21.90;89.10;;;;;;4997471;28;20464;-77
2023/06/06 07:06:44;;;;;;;1.50;0.90;;;21.90;89.00;;;;;;4982232;28;20707;-77
2023/06/06 07:09:11;;;;;;;1.50;1.10;;;22.00;88.90;;;;;;4995341;28;20456;-77
2023/06/06 07:11:38;;;;;;;1.43;0.90;;;22.10;89.00;;;;;;4981114;28;20481;-77
2023/06/06 07:14:05;;;;;;;1.50;0.90;;;22.30;87.90;;;;;;4993377;28;20693;-77
2023/06/06 07:16:34;;;;;;;1.50;0.90;;;22.50;87.60;;;;;;4996288;28;20581;-77
2023/06/06 07:19:01;;;;;;;1.87;1.67;;;22.70;87.30;;;;;;5000766;28;20465;-77
2023/06/06 07:21:28;;;;;;;1.50;0.87;;;22.90;86.90;;;;;;4993592;28;20479;-77
2023/06/06 07:23:56;;;;;;;1.50;0.90;;;23.00;85.50;;;;;;5002184;28;20546;-77
2023/06/06 07:26:25;;;;;;;1.43;0.90;;;23.20;85.30;;;;;;4989816;28;20543;-77
2023/06/06 07:28:52;;;;;;;1.50;0.80;;;23.20;85.20;;;;;;5013587;28;20853;-78
2023/06/06 07:31:19;;;;;;;1.60;1.10;;;23.30;85.00;;;;;;4996768;28;20468;-78
2023/06/06 07:33:48;;;;;;;1.47;0.90;;;23.50;84.00;;;;;;5003947;28;20467;-78
2023/06/06 07:36:15;;;;;;;1.43;0.83;;;23.60;84.40;;;;;;4996900;28;20490;-78
2023/06/06 07:38:42;;;;;;;1.47;0.90;;;23.80;83.80;;;;;;4997491;28;20510;-77
2023/06/06 07:41:10;;;;;;;1.43;0.80;;;23.90;82.40;;;;;;5001748;28;20476;-78
2023/06/06 07:43:37;;;;;;;1.50;0.83;;;24.10;81.90;;;;;;5016067;28;20467;-78
2023/06/06 07:46:04;;;;;;;1.50;0.90;;;24.20;81.90;;;;;;5000402;28;20560;-78
2023/06/06 07:48:31;;;;;;;1.43;0.83;;;24.40;81.20;;;;;;5013426;28;20602;-78
2023/06/06 07:51:00;;;;;;;1.47;0.90;;;24.50;80.60;;;;;;5005551;28;20474;-78
2023/06/06 07:53:27;;;;;;;1.50;1.00;;;24.50;80.10;;;;;;5019421;28;20459;-77
2023/06/06 07:55:54;;;;;;;1.40;0.80;;;24.60;79.70;;;;;;5002005;28;20534;-79
2023/06/06 07:58:26;;;;;;;1.50;0.90;;;24.70;79.40;;;;;;5012717;28;20468;-78
2023/06/06 08:00:53;;;;;;;1.50;0.80;;;24.80;78.70;;;;;;4997622;28;20489;-78
2023/06/06 08:03:20;;;;;;;1.47;0.90;;;24.80;80.70;;;;;;5011625;28;20746;-78
2023/06/06 08:05:47;;;;;;;1.50;0.80;;;24.90;79.50;;;;;;5009587;28;21238;-78
2023/06/06 08:08:15;;;;;;;1.47;0.80;;;25.10;79.30;;;;;;4991253;28;20482;-79
2023/06/06 08:10:42;;;;;;;1.47;0.90;;;25.30;77.90;;;;;;5012411;28;20626;-78
2023/06/06 08:13:10;;;;;;;1.50;0.80;;;25.40;79.20;;;;;;4984245;28;20811;-79
2023/06/06 08:15:41;;;;;;;1.50;0.90;;;25.60;77.90;;;;;;5011284;28;20483;-79
2023/06/06 08:18:08;;;;;;;1.43;0.80;;;25.80;76.50;;;;;;4987519;28;20486;-78
2023/06/06 08:20:35;;;;;;;1.47;0.80;;;25.70;76.50;;;;;;5012782;28;20583;-79
2023/06/06 08:23:02;;;;;;;1.50;0.80;;;25.60;74.50;;;;;;4984462;28;20475;-78
2023/06/06 08:25:31;;;;;;;1.40;0.80;;;25.60;75.40;;;;;;5010644;28;20897;-78
2023/06/06 08:27:59;;;;;;;1.47;0.80;;;25.70;77.10;;;;;;4981658;28;20489;-78
2023/06/06 08:30:26;;;;;;;2.43;1.40;;;25.90;76.00;;;;;;5009595;28;20549;-79
2023/06/06 08:32:53;;;;;;;1.47;0.80;;;26.00;74.80;;;;;;4999693;28;20502;-77
2023/06/06 08:35:20;;;;;;;1.50;1.00;;;26.00;74.60;;;;;;5007192;28;20566;-77
2023/06/06 08:37:48;;;;;;;1.47;0.80;;;26.10;74.70;;;;;;4995052;28;20571;-76
2023/06/06 08:40:15;;;;;;;1.47;0.90;;;26.20;74.30;;;;;;5007476;28;20447;-78
2023/06/06 11:28:26;;;;;;;1.43;0.80;;;32.20;62.70;;;;;;5020123;28;20224;-78
2023/06/06 11:30:55;;;;;;;1.40;0.80;;;32.20;61.80;;;;;;4999513;28;20345;-78
2023/06/06 11:33:22;;;;;;;1.43;0.80;;;32.10;61.50;;;;;;5016149;28;20295;-76
2023/06/06 11:35:54;;;;;;;1.43;0.80;;;32.00;61.40;;;;;;5010059;28;20278;-77
2023/06/06 11:38:21;;;;;;;1.50;0.90;;;32.10;62.60;;;;;;5028410;28;20206;-78
2023/06/06 11:40:48;;;;;;;1.40;0.83;;;32.20;62.00;;;;;;5026578;28;20286;-77
2023/06/06 11:43:16;;;;;;;1.40;0.80;;;32.20;61.60;;;;;;5027028;28;20321;-77
2023/06/06 11:45:43;;;;;;;1.43;0.80;;;32.10;60.50;;;;;;5032109;28;20286;-77
2023/06/06 11:48:25;;;;;;;1.40;0.80;;;32.00;60.90;;;;;;5029876;28;20231;-77
2023/06/06 11:50:52;;;;;;;1.40;0.80;;;32.30;61.10;;;;;;5029385;28;20231;-76
2023/06/06 11:53:29;;;;;;;1.67;1.33;;;32.50;59.60;;;;;;5028435;28;20200;-76
2023/06/06 11:55:56;;;;;;;1.40;0.80;;;32.40;59.70;;;;;;5022874;28;20278;-77
2023/06/06 11:58:29;;;;;;;1.43;0.90;;;32.50;57.80;;;;;;5030183;28;20666;-78
2023/06/06 12:00:56;;;;;;;1.50;0.90;;;32.50;57.60;;;;;;5027078;28;20226;-77
2023/06/06 12:03:27;;;;;;;1.50;1.10;;;32.60;57.40;;;;;;5027163;28;20752;-78
2023/06/06 12:06:01;;;;;;;1.43;0.80;;;32.60;58.00;;;;;;5018402;28;20246;-78
2023/06/06 12:08:28;;;;;;;1.40;0.80;;;32.50;58.20;;;;;;5029373;28;20208;-77
2023/06/06 12:10:55;;;;;;;1.43;0.80;;;32.30;57.90;;;;;;5025505;28;20216;-77
2023/06/06 12:13:32;;;;;;;1.47;0.80;;;32.30;57.70;;;;;;5028226;28;20204;-77
2023/06/06 12:15:59;;;;;;;1.40;0.80;;;32.20;57.70;;;;;;5020319;28;20234;-77
2023/06/06 12:18:27;;;;;;;1.40;0.80;;;32.10;57.90;;;;;;5025249;28;20223;-77
2023/06/06 12:20:55;;;;;;;1.40;0.80;;;32.10;57.40;;;;;;5027156;28;20204;-77
2023/06/06 12:23:28;;;;;;;1.50;1.10;;;31.90;58.00;;;;;;5034891;28;20204;-77
2023/06/06 12:25:57;;;;;;;1.43;0.80;;;31.90;58.10;;;;;;5026088;28;20215;-76
2023/06/06 12:28:24;;;;;;;1.40;0.80;;;31.80;57.50;;;;;;5024866;28;20477;-76
2023/06/06 12:30:52;;;;;;;1.43;0.80;;;31.60;58.20;;;;;;5012458;28;20319;-77
2023/06/06 12:33:19;;;;;;;1.40;0.80;;;31.50;57.10;;;;;;5026389;28;20215;-78
2023/06/06 12:35:48;;;;;;;1.40;0.80;;;31.40;57.60;;;;;;5037226;28;20862;-80
2023/06/06 12:38:23;;;;;;;1.43;0.80;;;31.10;56.50;;;;;;5007427;28;20705;-78
2023/06/06 12:40:56;;;;;;;1.67;1.10;;;31.20;57.50;;;;;;5025599;28;20197;-80
2023/06/06 12:43:23;;;;;;;1.40;0.80;;;31.30;57.10;;;;;;5033877;28;20274;-79
2023/06/06 12:45:50;;;;;;;1.40;0.80;;;31.30;56.40;;;;;;5016562;28;20313;-77
2023/06/06 12:48:22;;;;;;;1.43;0.80;;;31.50;56.90;;;;;;5026773;28;20223;-77
2023/06/06 12:50:50;;;;;;;1.40;0.80;;;31.70;55.40;;;;;;5022586;28;20220;-78
2023/06/06 12:53:18;;;;;;;1.40;0.80;;;31.70;55.20;;;;;;5034987;28;20670;-79
2023/06/06 12:55:44;;;;;;;1.40;0.80;;;31.60;55.70;;;;;;5032995;28;20865;-78
2023/06/06 12:58:11;;;;;;;1.40;0.80;;;31.50;55.50;;;;;;5017248;28;20710;-77
2023/06/06 13:00:39;;;;;;;1.40;0.80;;;31.60;54.40;;;;;;5029509;28;20581;-77
2023/06/06 13:03:09;;;;;;;1.40;0.80;;;31.70;54.00;;;;;;5018853;28;20256;-77
2023/06/06 13:05:36;;;;;;;1.40;0.80;;;32.00;54.00;;;;;;5033138;28;20301;-77
2023/06/06 13:08:05;;;;;;;1.40;0.80;;;32.10;53.40;;;;;;5016327;28;20315;-78
2023/06/06 13:10:31;;;;;;;1.40;0.80;;;32.30;53.90;;;;;;5034890;28;20232;-79
2023/06/06 13:12:58;;;;;;;1.40;0.80;;;32.10;53.90;;;;;;5018355;28;20251;-79
2023/06/06 13:15:27;;;;;;;1.40;0.80;;;32.10;54.40;;;;;;5031033;28;20232;-77
2023/06/06 13:17:54;;;;;;;1.40;0.90;;;32.30;54.10;;;;;;5012075;28;20315;-77
2023/06/06 13:20:24;;;;;;;1.40;0.80;;;32.30;55.30;;;;;;5030812;28;20238;-78
2023/06/06 13:22:51;;;;;;;1.40;0.80;;;32.30;54.30;;;;;;5023480;28;20224;-77
2023/06/06 13:25:20;;;;;;;1.40;0.90;;;32.00;54.40;;;;;;5034805;28;20223;-77
2023/06/06 13:27:48;;;;;;;1.40;0.80;;;31.70;55.10;;;;;;5018088;28;20251;-79
2023/06/06 13:30:15;;;;;;;1.40;0.80;;;31.80;55.30;;;;;;5034157;28;20212;-78
2023/06/06 13:32:42;;;;;;;1.40;0.80;;;31.90;54.00;;;;;;5024463;28;20289;-78
2023/06/06 13:35:12;;;;;;;1.40;0.80;;;31.90;54.60;;;;;;5037952;28;20215;-80
2023/06/06 13:37:39;;;;;;;1.40;0.80;;;31.90;51.60;;;;;;5021389;28;20227;-77
2023/06/06 13:40:07;;;;;;;1.40;0.80;;;31.90;53.10;;;;;;5030356;28;20208;-76
2023/06/06 13:42:35;;;;;;;1.40;0.80;;;32.10;53.70;;;;;;5011517;28;20227;-78
2023/06/06 13:45:02;;;;;;;1.40;0.80;;;32.10;53.80;;;;;;5026311;28;20208;-77
2023/06/06 13:47:29;;;;;;;1.40;0.97;;;31.90;53.20;;;;;;5021544;28;20301;-79
2023/06/06 13:49:57;;;;;;;1.40;0.80;;;31.80;54.70;;;;;;5031943;28;20200;-78
2023/06/06 13:52:24;;;;;;;1.40;0.80;;;31.40;53.40;;;;;;5021946;28;20245;-77
2023/06/06 13:54:52;;;;;;;1.40;0.80;;;31.00;54.80;;;;;;5029379;28;20638;-76
2023/06/06 13:57:18;;;;;;;1.60;0.97;;;31.20;54.00;;;;;;5022643;28;20808;-78
2023/06/06 13:59:47;;;;;;;1.40;0.80;;;31.50;54.60;;;;;;5034672;28;20323;-79
2023/06/06 14:02:14;;;;;;;1.40;0.80;;;31.70;55.60;;;;;;5022196;28;20295;-77
2023/06/06 14:04:42;;;;;;;1.40;0.90;;;31.90;55.20;;;;;;5033537;28;20275;-79
2023/06/06 14:07:10;;;;;;;1.40;0.80;;;31.90;54.50;;;;;;5023013;28;20709;-78
2023/06/06 14:09:36;;;;;;;1.40;0.80;;;31.90;54.00;;;;;;5033650;28;20246;-78
2023/06/06 14:12:04;;;;;;;1.40;0.80;;;31.90;54.70;;;;;;5024812;28;20825;-78
2023/06/06 14:14:31;;;;;;;1.40;0.80;;;31.90;55.10;;;;;;5032740;28;20232;-78
2023/06/06 14:17:00;;;;;;;1.40;0.80;;;31.90;54.70;;;;;;5018433;28;20334;-77
2023/06/06 14:19:36;;;;;;;1.40;0.80;;;31.90;55.30;;;;;;5030640;28;20206;-76
2023/06/06 14:22:24;;;;;;;1.77;1.23;;;32.10;54.00;;;;;;5018098;28;20223;-77
2023/06/06 14:24:53;;;;;;;1.40;0.80;;;32.40;55.40;;;;;;5037323;28;20200;-79
2023/06/06 14:27:20;;;;;;;1.40;0.80;;;32.50;52.80;;;;;;5018426;28;20263;-77
2023/06/06 14:29:48;;;;;;;1.50;1.00;;;32.30;53.00;;;;;;5030523;28;20429;-78
2023/06/06 14:32:17;;;;;;;1.40;0.80;;;32.00;53.20;;;;;;5026598;28;20231;-78
2023/06/06 14:34:46;;;;;;;1.40;0.80;;;31.90;54.90;;;;;;5028908;28;20208;-76
2023/06/06 14:37:14;;;;;;;1.50;1.00;;;31.70;54.80;;;;;;5022015;28;20228;-77
2023/06/06 14:39:40;;;;;;;1.40;0.80;;;31.50;54.20;;;;;;5039925;28;20223;-77
2023/06/06 14:42:08;;;;;;;1.40;0.80;;;31.20;54.10;;;;;;5020245;28;20242;-80
2023/06/06 14:44:37;;;;;;;1.50;0.90;;;30.90;55.00;;;;;;5039769;28;20294;-77
2023/06/06 14:47:06;;;;;;;1.40;0.80;;;30.80;56.10;;;;;;5021019;28;20389;-76
2023/06/06 14:49:38;;;;;;;1.40;0.87;;;30.60;55.20;;;;;;5033229;28;20208;-79
2023/06/06 14:52:07;;;;;;;1.43;0.80;;;30.20;55.30;;;;;;5015453;28;20742;-78
2023/06/06 14:54:34;;;;;;;1.43;0.80;;;30.00;56.20;;;;;;5028525;28;20485;-77
2023/06/06 14:57:02;;;;;;;1.50;0.80;;;29.70;56.70;;;;;;5024499;28;20814;-77
2023/06/06 14:59:33;;;;;;;1.43;0.80;;;29.50;57.30;;;;;;5035411;28;20529;-77
2023/06/06 15:02:01;;;;;;;1.63;1.27;;;29.20;57.30;;;;;;5024183;28;20485;-81
2023/06/06 15:04:33;;;;;;;1.40;0.80;;;29.00;58.10;;;;;;5031123;28;20540;-77
2023/06/06 15:07:03;;;;;;;1.43;0.80;;;28.80;58.10;;;;;;5023002;28;20478;-77
2023/06/06 15:09:31;;;;;;;1.43;0.80;;;28.60;58.90;;;;;;5030965;28;20549;-77
2023/06/06 15:12:00;;;;;;;1.40;0.80;;;28.50;59.30;;;;;;5026933;28;20571;-81
2023/06/06 15:17:21;;;;;;;1.43;0.80;;;28.20;59.50;;;;;;5024755;28;20769;-80
2023/06/06 15:19:58;;;;;;;1.50;0.80;;;28.10;60.10;;;;;;5035303;28;21082;-79
2023/06/06 15:22:29;;;;;;;1.50;0.80;;;28.00;60.10;;;;;;5031766;28;20549;-78
2023/06/06 15:24:56;;;;;;;1.70;0.90;;;28.00;59.70;;;;;;5031610;28;20471;-80
2023/06/06 15:27:25;;;;;;;1.47;0.80;;;28.00;60.40;;;;;;5015479;28;20700;-80
2023/06/06 15:29:53;;;;;;;1.43;0.80;;;28.00;60.70;;;;;;5025955;28;20897;-78
2023/06/06 15:32:21;;;;;;;1.50;0.90;;;28.00;60.70;;;;;;5021589;28;20510;-76
2023/06/06 15:34:48;;;;;;;1.40;0.80;;;27.90;61.00;;;;;;5030447;28;20462;-76
2023/06/06 15:37:15;;;;;;;1.47;0.80;;;27.80;60.60;;;;;;5021287;28;20513;-78
2023/06/06 15:39:44;;;;;;;1.40;0.80;;;27.70;61.10;;;;;;5033372;28;20517;-77
2023/06/06 15:42:11;;;;;;;1.47;0.80;;;27.70;61.20;;;;;;5024085;28;20478;-77
2023/06/06 15:44:39;;;;;;;1.43;0.80;;;27.70;61.30;;;;;;5029862;28;20453;-78